createdAt,value
2022-11-19T00:00:38.834Z,80.46
2022-11-19T00:01:38.843Z,81.50
2022-11-19T00:02:38.818Z,81.92
2022-11-19T00:03:38.837Z,82.45
2022-11-19T00:04:38.792Z,81.71
2022-11-19T00:05:38.797Z,82.45
2022-11-19T00:06:38.806Z,82.23
2022-11-19T00:07:38.831Z,82.76
2022-11-19T00:08:38.760Z,81.60
2022-11-19T00:09:38.733Z,81.92
2022-11-19T00:10:38.719Z,82.17
2022-11-19T00:11:38.747Z,82.17
2022-11-19T00:12:38.733Z,81.64
2022-11-19T00:13:38.693Z,81.43
2022-11-19T00:14:38.690Z,81.54
2022-11-19T00:15:38.684Z,82.38
2022-11-19T00:16:38.656Z,81.96
2022-11-19T00:17:38.667Z,82.38
2022-11-19T00:18:38.689Z,82.79
2022-11-19T00:19:38.646Z,82.79
2022-11-19T00:20:38.608Z,83.53
2022-11-19T00:21:38.609Z,82.65
2022-11-19T00:22:38.620Z,82.76
2022-11-19T00:23:38.607Z,81.82
2022-11-19T00:24:38.597Z,82.23
2022-11-19T00:25:38.555Z,81.29
2022-11-19T00:26:38.553Z,81.60
2022-11-19T00:27:38.540Z,81.19
2022-11-19T00:28:38.544Z,81.40
2022-11-19T00:29:38.556Z,81.29
2022-11-19T00:30:48.029Z,81.08
2022-11-19T00:31:39.502Z,80.66
2022-11-19T00:32:38.488Z,81.08
2022-11-19T00:33:38.462Z,81.60
2022-11-19T00:34:38.474Z,81.50
2022-11-19T00:35:38.449Z,81.40
2022-11-19T00:36:38.438Z,81.82
2022-11-19T00:37:38.474Z,81.60
2022-11-19T00:38:38.400Z,81.82
2022-11-19T00:39:38.409Z,81.92
2022-11-19T00:40:38.393Z,81.96
2022-11-19T00:41:38.413Z,82.55
2022-11-19T00:42:38.394Z,83.64
2022-11-19T00:43:38.344Z,83.59
2022-11-19T00:44:38.330Z,84.01
2022-11-19T00:45:38.331Z,83.95
2022-11-19T00:46:38.344Z,83.32
2022-11-19T00:47:38.304Z,82.79
2022-11-19T00:48:38.281Z,83.22
2022-11-19T00:49:38.293Z,82.90
2022-11-19T00:50:38.266Z,83.42
2022-11-19T00:51:38.241Z,83.53
2022-11-19T00:52:38.282Z,83.11
2022-11-19T00:53:38.222Z,82.48
2022-11-19T00:54:38.276Z,82.59
2022-11-19T00:55:38.218Z,82.48
2022-11-19T00:56:38.205Z,82.90
2022-11-19T00:57:38.175Z,82.45
2022-11-19T00:58:38.196Z,82.86
2022-11-19T00:59:38.207Z,82.86
2022-11-19T01:00:38.162Z,83.49
2022-11-19T01:01:38.171Z,83.18
2022-11-19T01:02:38.137Z,83.39
2022-11-19T01:03:38.113Z,83.07
2022-11-19T01:04:38.169Z,83.07
2022-11-19T01:05:38.096Z,83.49
2022-11-19T01:06:38.147Z,83.70
2022-11-19T01:07:38.139Z,83.49
2022-11-19T01:08:38.064Z,83.70
2022-11-19T01:09:38.074Z,83.49
2022-11-19T01:10:38.069Z,82.86
2022-11-19T01:11:38.027Z,83.39
2022-11-19T01:12:37.994Z,83.81
2022-11-19T01:13:38.027Z,83.59
2022-11-19T01:14:38.018Z,83.18
2022-11-19T01:15:37.954Z,83.49
2022-11-19T01:16:38.015Z,82.97
2022-11-19T01:17:37.959Z,82.13
2022-11-19T01:18:37.957Z,81.82
2022-11-19T01:19:37.944Z,82.23
2022-11-19T01:20:37.983Z,82.76
2022-11-19T01:21:37.943Z,83.07
2022-11-19T01:22:37.914Z,82.59
2022-11-19T01:23:37.869Z,83.11
2022-11-19T01:24:37.900Z,82.79
2022-11-19T01:25:37.862Z,83.64
2022-11-19T01:26:40.568Z,83.64
2022-11-19T01:27:38.826Z,83.01
2022-11-19T01:28:37.816Z,81.96
2022-11-19T01:29:37.804Z,82.79
2022-11-19T01:30:37.831Z,82.90
2022-11-19T01:31:37.827Z,82.69
2022-11-19T01:32:37.768Z,82.69
2022-11-19T01:33:37.789Z,82.69
2022-11-19T01:34:37.761Z,83.01
2022-11-19T01:35:37.783Z,82.90
2022-11-19T01:36:37.752Z,82.79
2022-11-19T01:37:37.716Z,83.32
2022-11-19T01:38:37.712Z,84.05
2022-11-19T01:39:37.679Z,83.53
2022-11-19T01:40:37.670Z,83.32
2022-11-19T01:41:37.740Z,83.95
2022-11-19T01:42:37.667Z,84.05
2022-11-19T01:43:37.640Z,83.74
2022-11-19T01:44:37.779Z,83.01
2022-11-19T01:45:37.635Z,83.11
2022-11-19T01:46:37.648Z,83.11
2022-11-19T01:47:37.631Z,83.11
2022-11-19T01:48:37.595Z,83.22
2022-11-19T01:49:37.592Z,82.79
2022-11-19T01:50:37.580Z,82.90
2022-11-19T01:51:37.594Z,83.01
2022-11-19T01:52:37.560Z,83.01
2022-11-19T01:53:37.614Z,83.32
2022-11-19T01:54:37.526Z,83.88
2022-11-19T01:55:37.501Z,83.67
2022-11-19T01:56:37.492Z,83.36
2022-11-19T01:57:37.532Z,83.74
2022-11-19T01:58:37.482Z,84.47
2022-11-19T01:59:37.479Z,84.62
2022-11-19T02:00:37.443Z,84.51
2022-11-19T02:01:37.498Z,84.30
2022-11-19T02:02:37.472Z,84.62
2022-11-19T02:03:37.466Z,84.30
2022-11-19T02:04:37.416Z,83.88
2022-11-19T02:05:37.425Z,83.25
2022-11-19T02:06:37.418Z,82.62
2022-11-19T02:07:37.390Z,83.47
2022-11-19T02:08:37.373Z,83.15
2022-11-19T02:09:37.358Z,82.83
2022-11-19T02:10:37.377Z,82.52
2022-11-19T02:11:37.345Z,82.10
2022-11-19T02:12:37.317Z,82.42
2022-11-19T02:13:37.306Z,82.10
2022-11-19T02:14:37.285Z,82.10
2022-11-19T02:15:37.320Z,83.15
2022-11-19T02:16:37.256Z,83.98
2022-11-19T02:17:37.269Z,83.88
2022-11-19T02:18:37.265Z,83.47
2022-11-19T02:19:37.234Z,83.47
2022-11-19T02:20:37.228Z,83.67
2022-11-19T02:21:37.279Z,83.88
2022-11-19T02:22:37.195Z,83.50
2022-11-19T02:23:39.576Z,83.61
2022-11-19T02:24:38.186Z,82.98
2022-11-19T02:25:37.180Z,82.98
2022-11-19T02:26:37.246Z,82.66
2022-11-19T02:27:37.155Z,82.03
2022-11-19T02:28:37.122Z,82.14
2022-11-19T02:29:37.109Z,83.08
2022-11-19T02:30:37.107Z,83.50
2022-11-19T02:31:37.147Z,82.87
2022-11-19T02:32:37.076Z,82.56
2022-11-19T02:33:37.065Z,82.66
2022-11-19T02:34:37.058Z,82.66
2022-11-19T02:35:37.038Z,83.29
2022-11-19T02:36:37.080Z,83.18
2022-11-19T02:37:37.030Z,83.40
2022-11-19T02:38:37.007Z,83.71
2022-11-19T02:39:37.003Z,83.81
2022-11-19T02:40:36.976Z,83.08
2022-11-19T02:41:37.013Z,83.40
2022-11-19T02:42:37.032Z,83.71
2022-11-19T02:43:36.968Z,84.34
2022-11-19T02:44:36.952Z,84.34
2022-11-19T02:45:36.955Z,84.13
2022-11-19T02:46:36.954Z,84.66
2022-11-19T02:47:36.915Z,84.69
2022-11-19T02:48:36.953Z,84.06
2022-11-19T02:49:36.893Z,84.48
2022-11-19T02:50:36.895Z,85.22
2022-11-19T02:51:36.885Z,85.32
2022-11-19T02:52:36.871Z,85.64
2022-11-19T02:53:36.859Z,85.42
2022-11-19T02:54:36.820Z,85.01
2022-11-19T02:55:36.832Z,85.25
2022-11-19T02:56:36.814Z,85.05
2022-11-19T02:57:36.821Z,84.31
2022-11-19T02:58:36.790Z,84.20
2022-11-19T02:59:36.764Z,84.10
2022-11-19T03:00:36.750Z,84.31
2022-11-19T03:01:36.794Z,84.20
2022-11-19T03:02:36.741Z,84.31
2022-11-19T03:03:36.764Z,84.48
2022-11-19T03:04:36.711Z,84.59
2022-11-19T03:05:36.721Z,85.01
2022-11-19T03:06:36.671Z,85.95
2022-11-19T03:07:36.789Z,86.47
2022-11-19T03:08:36.696Z,86.69
2022-11-19T03:09:36.701Z,86.69
2022-11-19T03:10:36.645Z,86.47
2022-11-19T03:11:36.639Z,86.37
2022-11-19T03:12:36.624Z,85.85
2022-11-19T03:13:36.614Z,85.95
2022-11-19T03:14:36.708Z,86.69
2022-11-19T03:15:36.575Z,86.69
2022-11-19T03:16:36.583Z,85.64
2022-11-19T03:17:36.576Z,84.80
2022-11-19T03:18:36.554Z,84.69
2022-11-19T03:19:36.548Z,85.11
2022-11-19T03:20:36.570Z,85.95
2022-11-19T03:21:36.526Z,86.69
2022-11-19T03:22:36.520Z,86.79
2022-11-19T03:23:36.506Z,86.69
2022-11-19T03:24:36.506Z,86.06
2022-11-19T03:25:36.539Z,86.06
2022-11-19T03:26:36.454Z,85.95
2022-11-19T03:27:36.451Z,85.01
2022-11-19T03:28:36.441Z,84.48
2022-11-19T03:29:36.422Z,84.59
2022-11-19T03:30:36.416Z,85.32
2022-11-19T03:31:36.475Z,86.06
2022-11-19T03:32:36.431Z,85.95
2022-11-19T03:33:36.415Z,85.85
2022-11-19T03:34:36.381Z,86.16
2022-11-19T03:35:36.346Z,86.16
2022-11-19T03:36:36.367Z,85.85
2022-11-19T03:37:36.348Z,85.01
2022-11-19T03:38:36.331Z,85.01
2022-11-19T03:39:36.316Z,85.22
2022-11-19T03:40:36.324Z,84.91
2022-11-19T03:41:36.306Z,84.91
2022-11-19T03:42:36.337Z,85.64
2022-11-19T03:43:36.280Z,85.74
2022-11-19T03:44:36.280Z,85.32
2022-11-19T03:45:36.253Z,85.32
2022-11-19T03:46:36.258Z,84.80
2022-11-19T03:47:36.246Z,84.80
2022-11-19T03:48:36.218Z,84.59
2022-11-19T03:49:36.197Z,85.01
2022-11-19T03:50:36.239Z,84.69
2022-11-19T03:51:36.192Z,85.01
2022-11-19T03:52:36.172Z,85.42
2022-11-19T03:53:36.177Z,85.42
2022-11-19T03:54:36.164Z,85.42
2022-11-19T03:55:36.152Z,85.47
2022-11-19T03:56:36.119Z,85.36
2022-11-19T03:57:36.151Z,85.47
2022-11-19T03:58:36.122Z,85.36
2022-11-19T03:59:36.099Z,85.05
2022-11-19T04:00:36.078Z,85.15
2022-11-19T04:01:36.106Z,85.15
2022-11-19T04:02:36.083Z,84.77
2022-11-19T04:03:36.079Z,84.98
2022-11-19T04:04:36.031Z,85.40
2022-11-19T04:05:36.024Z,85.82
2022-11-19T04:06:36.015Z,85.61
2022-11-19T04:07:36.084Z,85.40
2022-11-19T04:08:36.025Z,85.50
2022-11-19T04:09:35.984Z,85.72
2022-11-19T04:10:35.976Z,86.24
2022-11-19T04:11:35.972Z,86.24
2022-11-19T04:12:35.952Z,86.03
2022-11-19T04:13:35.979Z,86.07
2022-11-19T04:14:35.939Z,86.38
2022-11-19T04:15:35.914Z,86.28
2022-11-19T04:16:35.931Z,86.38
2022-11-19T04:17:36.036Z,86.07
2022-11-19T04:18:35.871Z,86.07
2022-11-19T04:19:35.862Z,86.07
2022-11-19T04:20:35.846Z,86.18
2022-11-19T04:21:35.837Z,86.18
2022-11-19T04:22:35.814Z,85.96
2022-11-19T04:23:35.862Z,86.07
2022-11-19T04:24:35.820Z,85.86
2022-11-19T04:25:35.807Z,85.96
2022-11-19T04:26:35.772Z,86.07
2022-11-19T04:27:35.765Z,86.28
2022-11-19T04:28:35.771Z,86.38
2022-11-19T04:29:35.796Z,86.38
2022-11-19T04:30:35.743Z,86.32
2022-11-19T04:31:35.715Z,87.05
2022-11-19T04:32:35.714Z,87.27
2022-11-19T04:33:35.716Z,86.70
2022-11-19T04:34:35.735Z,86.80
2022-11-19T04:35:35.674Z,86.70
2022-11-19T04:36:35.663Z,86.70
2022-11-19T04:37:35.655Z,86.38
2022-11-19T04:38:35.657Z,86.49
2022-11-19T04:39:35.669Z,86.70
2022-11-19T04:40:35.671Z,86.38
2022-11-19T04:41:35.613Z,86.60
2022-11-19T04:42:35.608Z,86.74
2022-11-19T04:43:35.600Z,86.91
2022-11-19T04:44:35.648Z,87.16
2022-11-19T04:45:35.580Z,87.27
2022-11-19T04:46:35.569Z,87.05
2022-11-19T04:47:35.554Z,87.16
2022-11-19T04:48:35.549Z,87.05
2022-11-19T04:49:35.535Z,87.05
2022-11-19T04:50:35.560Z,87.16
2022-11-19T04:51:35.505Z,87.05
2022-11-19T04:52:40.524Z,86.95
2022-11-19T04:53:36.489Z,86.95
2022-11-19T04:54:35.493Z,86.95
2022-11-19T04:55:35.477Z,87.05
2022-11-19T04:56:35.468Z,86.95
2022-11-19T04:57:35.435Z,87.05
2022-11-19T04:58:35.462Z,87.05
2022-11-19T04:59:35.429Z,86.95
2022-11-19T05:00:35.396Z,87.16
2022-11-19T05:01:35.479Z,87.27
2022-11-19T05:02:35.391Z,87.30
2022-11-19T05:03:35.401Z,87.41
2022-11-19T05:04:35.357Z,87.41
2022-11-19T05:05:35.362Z,87.62
2022-11-19T05:06:35.374Z,87.73
2022-11-19T05:07:35.371Z,87.62
2022-11-19T05:08:35.362Z,87.41
2022-11-19T05:09:35.297Z,87.52
2022-11-19T05:10:35.297Z,87.62
2022-11-19T05:11:35.326Z,87.52
2022-11-19T05:12:35.270Z,87.41
2022-11-19T05:13:35.295Z,87.73
2022-11-19T05:14:35.254Z,88.04
2022-11-19T05:15:35.242Z,88.15
2022-11-19T05:16:35.276Z,88.04
2022-11-19T05:17:35.224Z,87.62
2022-11-19T05:18:35.220Z,87.73
2022-11-19T05:19:35.220Z,87.52
2022-11-19T05:20:35.171Z,87.30
2022-11-19T05:21:35.169Z,87.10
2022-11-19T05:22:35.180Z,86.99
2022-11-19T05:23:35.140Z,86.78
2022-11-19T05:24:35.154Z,87.10
2022-11-19T05:25:35.143Z,87.20
2022-11-19T05:26:35.163Z,87.10
2022-11-19T05:27:35.142Z,86.99
2022-11-19T05:28:39.706Z,86.78
2022-11-19T05:29:36.082Z,86.46
2022-11-19T05:30:35.085Z,86.68
2022-11-19T05:31:35.104Z,86.78
2022-11-19T05:32:35.101Z,86.68
2022-11-19T05:33:35.034Z,86.68
2022-11-19T05:34:35.062Z,86.78
2022-11-19T05:35:35.023Z,86.78
2022-11-19T05:36:35.017Z,86.25
2022-11-19T05:37:35.006Z,86.15
2022-11-19T05:38:35.027Z,86.15
2022-11-19T05:39:34.996Z,86.36
2022-11-19T05:40:34.985Z,86.46
2022-11-19T05:41:34.953Z,86.36
2022-11-19T05:42:34.975Z,86.04
2022-11-19T05:43:34.999Z,86.36
2022-11-19T05:44:34.952Z,86.78
2022-11-19T05:45:34.953Z,87.30
2022-11-19T05:46:34.898Z,87.66
2022-11-19T05:47:34.906Z,87.76
2022-11-19T05:48:34.888Z,87.66
2022-11-19T05:49:34.877Z,87.87
2022-11-19T05:50:34.887Z,87.66
2022-11-19T05:51:34.862Z,87.66
2022-11-19T05:52:34.843Z,87.49
2022-11-19T05:53:34.822Z,87.60
2022-11-19T05:54:34.815Z,87.70
2022-11-19T05:55:34.859Z,87.55
2022-11-19T05:56:34.794Z,87.66
2022-11-19T05:57:34.837Z,87.35
2022-11-19T05:58:34.819Z,86.93
2022-11-19T05:59:36.684Z,86.61
2022-11-19T06:00:34.761Z,86.40
2022-11-19T06:01:34.798Z,86.29
2022-11-19T06:02:34.846Z,86.08
2022-11-19T06:03:34.715Z,85.97
2022-11-19T06:04:34.717Z,85.87
2022-11-19T06:05:39.879Z,85.97
2022-11-19T06:06:35.714Z,86.19
2022-11-19T06:07:34.710Z,86.08
2022-11-19T06:08:34.666Z,85.87
2022-11-19T06:09:34.659Z,85.87
2022-11-19T06:10:34.630Z,85.55
2022-11-19T06:11:34.659Z,85.31
2022-11-19T06:12:34.643Z,85.31
2022-11-19T06:13:34.606Z,85.31
2022-11-19T06:14:34.633Z,85.20
2022-11-19T06:15:34.645Z,85.31
2022-11-19T06:16:34.572Z,85.41
2022-11-19T06:17:34.562Z,85.62
2022-11-19T06:18:34.579Z,85.66
2022-11-19T06:19:34.559Z,85.45
2022-11-19T06:20:34.551Z,85.66
2022-11-19T06:21:34.521Z,85.55
2022-11-19T06:22:34.522Z,85.55
2022-11-19T06:23:34.496Z,85.80
2022-11-19T06:24:34.532Z,85.80
2022-11-19T06:25:34.500Z,85.91
2022-11-19T06:26:34.449Z,86.44
2022-11-19T06:27:34.482Z,86.76
2022-11-19T06:28:34.453Z,86.96
2022-11-19T06:29:34.452Z,86.96
2022-11-19T06:30:34.439Z,86.76
2022-11-19T06:31:34.429Z,86.54
2022-11-19T06:32:34.426Z,86.12
2022-11-19T06:33:34.429Z,86.08
2022-11-19T06:34:34.368Z,85.66
2022-11-19T06:35:34.389Z,85.66
2022-11-19T06:36:40.241Z,85.66
2022-11-19T06:37:35.340Z,85.66
2022-11-19T06:38:34.347Z,85.55
2022-11-19T06:39:34.325Z,85.45
2022-11-19T06:40:34.338Z,85.66
2022-11-19T06:41:34.304Z,85.77
2022-11-19T06:42:34.328Z,85.66
2022-11-19T06:43:34.295Z,85.45
2022-11-19T06:44:34.279Z,85.55
2022-11-19T06:45:34.295Z,85.24
2022-11-19T06:46:34.264Z,85.20
2022-11-19T06:47:34.290Z,85.31
2022-11-19T06:48:34.211Z,85.20
2022-11-19T06:49:34.201Z,85.31
2022-11-19T06:50:34.236Z,85.20
2022-11-19T06:51:34.182Z,84.99
2022-11-19T06:52:34.230Z,84.99
2022-11-19T06:53:34.197Z,84.99
2022-11-19T06:54:35.820Z,84.99
2022-11-19T06:55:34.174Z,84.89
2022-11-19T06:56:34.185Z,85.10
2022-11-19T06:57:34.120Z,85.10
2022-11-19T06:58:34.099Z,84.99
2022-11-19T06:59:34.083Z,84.89
2022-11-19T07:00:34.117Z,84.89
2022-11-19T07:01:34.165Z,84.89
2022-11-19T07:02:34.087Z,84.47
2022-11-19T07:03:34.054Z,84.15
2022-11-19T07:04:34.051Z,84.25
2022-11-19T07:05:34.057Z,84.36
2022-11-19T07:06:34.036Z,84.47
2022-11-19T07:07:34.048Z,84.67
2022-11-19T07:08:34.036Z,84.47
2022-11-19T07:09:33.984Z,84.89
2022-11-19T07:10:34.008Z,84.67
2022-11-19T07:11:33.999Z,84.47
2022-11-19T07:12:33.977Z,84.78
2022-11-19T07:13:33.976Z,84.78
2022-11-19T07:14:33.965Z,84.89
2022-11-19T07:15:33.958Z,84.89
2022-11-19T07:16:33.957Z,84.78
2022-11-19T07:17:33.911Z,84.57
2022-11-19T07:18:33.885Z,84.25
2022-11-19T07:19:33.921Z,84.36
2022-11-19T07:20:33.911Z,84.22
2022-11-19T07:21:33.858Z,84.11
2022-11-19T07:22:33.881Z,84.15
2022-11-19T07:23:33.847Z,84.36
2022-11-19T07:24:33.831Z,84.36
2022-11-19T07:25:33.833Z,84.47
2022-11-19T07:26:33.874Z,84.42
2022-11-19T07:27:33.789Z,84.01
2022-11-19T07:28:33.796Z,84.01
2022-11-19T07:29:33.780Z,83.80
2022-11-19T07:30:33.757Z,83.48
2022-11-19T07:31:33.744Z,83.06
2022-11-19T07:32:33.751Z,82.95
2022-11-19T07:33:33.749Z,82.75
2022-11-19T07:34:33.707Z,82.95
2022-11-19T07:35:33.712Z,82.81
2022-11-19T07:36:33.677Z,83.13
2022-11-19T07:37:33.731Z,83.13
2022-11-19T07:38:36.993Z,83.13
2022-11-19T07:39:33.662Z,83.23
2022-11-19T07:40:33.638Z,82.81
2022-11-19T07:41:33.636Z,82.60
2022-11-19T07:42:33.641Z,82.92
2022-11-19T07:43:33.617Z,82.60
2022-11-19T07:44:33.640Z,82.71
2022-11-19T07:45:33.579Z,82.92
2022-11-19T07:46:33.584Z,82.50
2022-11-19T07:47:33.589Z,82.39
2022-11-19T07:48:33.582Z,82.07
2022-11-19T07:49:33.570Z,82.18
2022-11-19T07:50:33.567Z,82.50
2022-11-19T07:51:33.534Z,82.35
2022-11-19T07:52:33.574Z,82.14
2022-11-19T07:53:33.502Z,82.35
2022-11-19T07:54:33.545Z,82.14
2022-11-19T07:55:33.471Z,82.14
2022-11-19T07:56:33.458Z,81.69
2022-11-19T07:57:33.461Z,81.79
2022-11-19T07:58:33.460Z,81.69
2022-11-19T07:59:33.476Z,81.79
2022-11-19T08:00:33.435Z,81.48
2022-11-19T08:01:33.463Z,81.48
2022-11-19T08:02:33.457Z,81.20
2022-11-19T08:03:33.395Z,80.99
2022-11-19T08:04:33.385Z,81.51
2022-11-19T08:05:33.394Z,81.37
2022-11-19T08:06:33.387Z,81.37
2022-11-19T08:07:33.396Z,81.58
2022-11-19T08:08:33.325Z,81.09
2022-11-19T08:09:33.338Z,81.41
2022-11-19T08:10:33.396Z,81.41
2022-11-19T08:11:33.339Z,81.41
2022-11-19T08:12:33.320Z,81.41
2022-11-19T08:13:33.264Z,81.62
2022-11-19T08:14:33.253Z,81.41
2022-11-19T08:15:33.315Z,81.51
2022-11-19T08:16:33.238Z,81.30
2022-11-19T08:17:33.254Z,81.20
2022-11-19T08:18:33.271Z,81.30
2022-11-19T08:19:33.206Z,81.51
2022-11-19T08:20:33.208Z,81.41
2022-11-19T08:21:33.297Z,81.27
2022-11-19T08:22:33.179Z,81.05
2022-11-19T08:23:33.188Z,80.95
2022-11-19T08:24:33.160Z,80.85
2022-11-19T08:25:33.139Z,80.74
2022-11-19T08:26:33.146Z,80.85
2022-11-19T08:27:33.174Z,80.91
2022-11-19T08:28:33.109Z,80.81
2022-11-19T08:29:33.107Z,80.08
2022-11-19T08:30:33.117Z,79.66
2022-11-19T08:31:33.077Z,79.44
2022-11-19T08:32:33.129Z,79.55
2022-11-19T08:33:33.049Z,79.66
2022-11-19T08:34:33.045Z,79.76
2022-11-19T08:35:33.046Z,79.66
2022-11-19T08:36:33.029Z,79.13
2022-11-19T08:37:33.006Z,79.44
2022-11-19T08:38:38.258Z,79.38
2022-11-19T08:39:33.979Z,79.38
2022-11-19T08:40:32.990Z,79.58
2022-11-19T08:41:32.954Z,79.86
2022-11-19T08:42:32.956Z,79.97
2022-11-19T08:43:33.091Z,79.66
2022-11-19T08:44:32.929Z,79.44
2022-11-19T08:45:32.917Z,79.55
2022-11-19T08:46:32.910Z,79.44
2022-11-19T08:47:32.891Z,79.44
2022-11-19T08:48:32.884Z,79.44
2022-11-19T08:49:32.930Z,79.34
2022-11-19T08:50:32.847Z,79.44
2022-11-19T08:51:32.854Z,79.34
2022-11-19T08:52:32.890Z,79.44
2022-11-19T08:53:32.832Z,79.55
2022-11-19T08:54:32.829Z,79.44
2022-11-19T08:55:32.860Z,79.03
2022-11-19T08:56:32.792Z,79.34
2022-11-19T08:57:32.772Z,79.48
2022-11-19T08:58:32.798Z,79.69
2022-11-19T08:59:32.791Z,80.00
2022-11-19T09:00:32.789Z,80.32
2022-11-19T09:01:32.732Z,80.43
2022-11-19T09:02:32.752Z,80.53
2022-11-19T09:03:32.715Z,80.11
2022-11-19T09:04:32.792Z,80.64
2022-11-19T09:05:32.715Z,80.74
2022-11-19T09:06:32.698Z,80.68
2022-11-19T09:07:32.760Z,80.78
2022-11-19T09:08:32.661Z,80.88
2022-11-19T09:09:32.643Z,81.51
2022-11-19T09:10:32.667Z,81.48
2022-11-19T09:11:32.628Z,81.58
2022-11-19T09:12:32.630Z,81.20
2022-11-19T09:13:32.605Z,80.95
2022-11-19T09:14:32.586Z,80.85
2022-11-19T09:15:32.583Z,80.85
2022-11-19T09:16:32.583Z,80.74
2022-11-19T09:17:32.560Z,80.53
2022-11-19T09:18:32.561Z,80.53
2022-11-19T09:19:32.535Z,80.22
2022-11-19T09:20:32.526Z,80.22
2022-11-19T09:21:32.644Z,80.49
2022-11-19T09:22:32.496Z,80.39
2022-11-19T09:23:32.507Z,80.08
2022-11-19T09:24:32.488Z,79.41
2022-11-19T09:25:32.476Z,79.16
2022-11-19T09:26:32.454Z,78.50
2022-11-19T09:27:32.486Z,77.14
2022-11-19T09:28:32.423Z,76.44
2022-11-19T09:29:32.407Z,75.84
2022-11-19T09:30:32.393Z,74.07
2022-11-19T09:31:32.416Z,70.70
2022-11-19T09:32:32.427Z,67.14
2022-11-19T09:33:32.378Z,64.21
2022-11-19T09:34:32.333Z,61.35
2022-11-19T09:35:32.346Z,60.05
2022-11-19T09:36:32.356Z,59.30
2022-11-19T09:37:32.349Z,58.23
2022-11-19T09:38:32.339Z,57.06
2022-11-19T09:39:32.349Z,56.52
2022-11-19T09:40:32.290Z,56.29
2022-11-19T09:41:32.342Z,55.43
2022-11-19T09:42:32.279Z,54.82
2022-11-19T09:43:32.288Z,55.12
2022-11-19T09:44:32.249Z,54.94
2022-11-19T09:45:32.216Z,55.46
2022-11-19T09:46:32.243Z,55.15
2022-11-19T09:47:32.194Z,54.63
2022-11-19T09:48:32.192Z,55.49
2022-11-19T09:49:32.204Z,56.70
2022-11-19T09:50:32.229Z,58.75
2022-11-19T09:51:32.176Z,60.83
2022-11-19T09:52:32.155Z,62.90
2022-11-19T09:53:32.144Z,65.14
2022-11-19T09:54:32.152Z,65.80
2022-11-19T09:55:32.138Z,67.92
2022-11-19T09:56:32.103Z,68.37
2022-11-19T09:57:32.083Z,69.44
2022-11-19T09:58:32.099Z,70.38
2022-11-19T09:59:32.091Z,70.73
2022-11-19T10:00:32.039Z,71.36
2022-11-19T10:01:32.073Z,71.98
2022-11-19T10:02:32.059Z,72.22
2022-11-19T10:03:33.935Z,72.85
2022-11-19T10:04:32.039Z,73.37
2022-11-19T10:05:31.993Z,73.19
2022-11-19T10:06:32.026Z,72.99
2022-11-19T10:07:32.051Z,73.19
2022-11-19T10:08:31.942Z,73.09
2022-11-19T10:09:31.945Z,73.06
2022-11-19T10:10:31.936Z,72.85
2022-11-19T10:11:31.930Z,72.53
2022-11-19T10:12:31.942Z,72.02
2022-11-19T10:13:31.889Z,71.53
2022-11-19T10:14:31.907Z,71.15
2022-11-19T10:15:37.195Z,68.87
2022-11-19T10:16:32.851Z,65.83
2022-11-19T10:17:31.845Z,63.11
2022-11-19T10:18:31.950Z,60.67
2022-11-19T10:19:31.897Z,59.09
2022-11-19T10:20:31.812Z,58.41
2022-11-19T10:21:31.820Z,57.66
2022-11-19T10:22:31.808Z,56.08
2022-11-19T10:23:31.777Z,55.64
2022-11-19T10:24:31.793Z,54.91
2022-11-19T10:25:31.757Z,54.40
2022-11-19T10:26:31.736Z,55.20
2022-11-19T10:27:31.734Z,54.25
2022-11-19T10:28:31.736Z,53.52
2022-11-19T10:29:31.696Z,52.88
2022-11-19T10:30:31.695Z,52.15
2022-11-19T10:31:31.688Z,52.42
2022-11-19T10:32:31.687Z,52.00
2022-11-19T10:33:31.660Z,51.87
2022-11-19T10:34:31.695Z,51.03
2022-11-19T10:35:31.665Z,50.51
2022-11-19T10:36:31.616Z,50.08
2022-11-19T10:37:31.630Z,49.95
2022-11-19T10:38:31.613Z,49.66
2022-11-19T10:39:31.614Z,50.46
2022-11-19T10:40:31.580Z,49.23
2022-11-19T10:41:31.593Z,48.07
2022-11-19T10:42:31.565Z,48.59
2022-11-19T10:43:31.538Z,49.54
2022-11-19T10:44:31.547Z,49.87
2022-11-19T10:45:31.532Z,49.15
2022-11-19T10:46:31.497Z,50.05
2022-11-19T10:47:31.509Z,48.71
2022-11-19T10:48:31.521Z,49.33
2022-11-19T10:49:31.481Z,49.52
2022-11-19T10:50:31.513Z,48.59
2022-11-19T10:51:31.439Z,48.90
2022-11-19T10:52:31.420Z,49.13
2022-11-19T10:53:31.459Z,49.98
2022-11-19T10:54:31.402Z,50.08
2022-11-19T10:55:31.414Z,51.44
2022-11-19T10:56:31.443Z,51.75
2022-11-19T10:57:31.375Z,51.73
2022-11-19T10:58:31.353Z,51.21
2022-11-19T10:59:31.353Z,51.23
2022-11-19T11:00:31.345Z,51.54
2022-11-19T11:01:31.416Z,51.98
2022-11-19T11:02:31.364Z,52.08
2022-11-19T11:03:31.303Z,51.87
2022-11-19T11:04:31.309Z,51.39
2022-11-19T11:05:31.278Z,52.78
2022-11-19T11:06:31.305Z,53.27
2022-11-19T11:07:31.307Z,53.34
2022-11-19T11:08:31.257Z,52.11
2022-11-19T11:09:31.228Z,51.98
2022-11-19T11:10:31.259Z,50.95
2022-11-19T11:11:31.218Z,51.95
2022-11-19T11:12:31.238Z,50.74
2022-11-19T11:13:31.176Z,51.36
2022-11-19T11:14:31.176Z,51.78
2022-11-19T11:15:31.176Z,51.28
2022-11-19T11:16:35.101Z,51.18
2022-11-19T11:17:32.195Z,51.03
2022-11-19T11:18:31.163Z,50.43
2022-11-19T11:19:31.127Z,51.49
2022-11-19T11:20:31.109Z,51.18
2022-11-19T11:21:31.111Z,51.82
2022-11-19T11:22:31.133Z,51.79
2022-11-19T11:23:31.068Z,51.85
2022-11-19T11:24:31.112Z,51.31
2022-11-19T11:25:31.053Z,50.70
2022-11-19T11:26:31.038Z,50.44
2022-11-19T11:27:31.039Z,50.13
2022-11-19T11:28:31.029Z,50.59
2022-11-19T11:29:31.003Z,51.42
2022-11-19T11:30:30.997Z,51.85
2022-11-19T11:31:31.021Z,51.78
2022-11-19T11:32:30.960Z,51.95
2022-11-19T11:33:30.973Z,52.68
2022-11-19T11:34:30.987Z,52.01
2022-11-19T11:35:30.937Z,50.65
2022-11-19T11:36:30.913Z,51.37
2022-11-19T11:37:30.903Z,51.26
2022-11-19T11:38:30.913Z,51.47
2022-11-19T11:39:30.893Z,51.86
2022-11-19T11:40:31.036Z,49.82
2022-11-19T11:42:04.283Z,51.00
2022-11-19T11:42:31.858Z,51.21
2022-11-19T11:43:30.857Z,51.21
2022-11-19T11:44:30.830Z,52.01
2022-11-19T11:45:30.805Z,50.96
2022-11-19T11:46:30.855Z,50.88
2022-11-19T11:47:30.797Z,52.11
2022-11-19T11:48:30.800Z,51.73
2022-11-19T11:49:30.810Z,51.98
2022-11-19T11:50:30.749Z,53.03
2022-11-19T11:51:30.736Z,54.48
2022-11-19T11:52:30.746Z,53.83
2022-11-19T11:53:30.753Z,52.29
2022-11-19T11:54:30.698Z,53.14
2022-11-19T11:55:30.732Z,54.19
2022-11-19T11:56:30.692Z,54.22
2022-11-19T11:57:30.717Z,54.92
2022-11-19T11:58:30.675Z,53.78
2022-11-19T11:59:30.678Z,54.06
2022-11-19T12:00:30.645Z,53.30
2022-11-19T12:01:30.625Z,51.85
2022-11-19T12:02:30.863Z,52.91
2022-11-19T12:03:30.604Z,53.37
2022-11-19T12:04:30.612Z,53.76
2022-11-19T12:05:30.593Z,53.06
2022-11-19T12:06:30.572Z,53.37
2022-11-19T12:07:30.593Z,53.03
2022-11-19T12:08:30.555Z,53.32
2022-11-19T12:09:30.524Z,52.26
2022-11-19T12:10:30.555Z,51.95
2022-11-19T12:11:30.536Z,52.03
2022-11-19T12:12:30.513Z,50.20
2022-11-19T12:13:30.473Z,50.72
2022-11-19T12:14:30.479Z,51.03
2022-11-19T12:15:30.491Z,50.31
2022-11-19T12:16:30.465Z,50.46
2022-11-19T12:17:30.477Z,50.03
2022-11-19T12:18:30.437Z,49.39
2022-11-19T12:19:30.405Z,48.38
2022-11-19T12:20:30.425Z,48.74
2022-11-19T12:21:30.421Z,50.15
2022-11-19T12:22:30.378Z,52.11
2022-11-19T12:23:30.359Z,51.36
2022-11-19T12:24:30.337Z,51.03
2022-11-19T12:25:30.390Z,50.72
2022-11-19T12:26:30.340Z,50.70
2022-11-19T12:27:30.328Z,50.70
2022-11-19T12:28:30.311Z,50.26
2022-11-19T12:29:30.297Z,49.87
2022-11-19T12:30:30.298Z,49.56
2022-11-19T12:31:30.369Z,50.12
2022-11-19T12:32:30.261Z,50.54
2022-11-19T12:33:30.240Z,49.61
2022-11-19T12:34:30.252Z,49.81
2022-11-19T12:35:30.252Z,49.40
2022-11-19T12:36:30.230Z,49.91
2022-11-19T12:37:30.190Z,51.65
2022-11-19T12:38:30.214Z,51.00
2022-11-19T12:39:30.187Z,49.85
2022-11-19T12:40:38.380Z,47.89
2022-11-19T12:41:31.204Z,45.32
2022-11-19T12:42:30.159Z,46.55
2022-11-19T12:43:30.165Z,46.20
2022-11-19T12:44:30.121Z,48.87
2022-11-19T12:45:30.103Z,48.32
2022-11-19T12:46:30.100Z,50.74
2022-11-19T12:47:30.102Z,49.16
2022-11-19T12:48:30.107Z,51.59
2022-11-19T12:49:30.052Z,52.86
2022-11-19T12:50:30.053Z,54.13
2022-11-19T12:51:30.107Z,55.48
2022-11-19T12:52:30.047Z,55.11